Saint-Jude, Canada
Current Conditions -  °F | °C
As of 11:00 PM on Saturday 20 Dec 2014 (Local Time) from CYHU Reporting Station
Light Snow Light Snow  
Wind Chill:   Ceiling: 900
Heat Index:   Visibility: 1.2mi
Dew Point:   Wind: 3mph
Humidity: 92%   Direction: 30°NNE
Pressure: 30.38"   Gusts: NA
Location:  45.77°N, 72.98°W
Report Text: CYHU 210400Z AUTO 03003KT 1 1/4SM -SN BKN009 OVC013 M14/M15 A3038 RMK SLP289
Loading
Personal Weather Stations






























Interactive Weather Map New forecast layout! Learn more

10-Day Weather Forecast

Advertisements
Track Severe Weather on mobile